METAR Data
IDs: Format: Raw Decoded Include TAF

Data at: 0148 UTC 01 Mar 2021

LRSV 010130Z 31011KT 9999 -SN BKN010 BKN023 01/M00 Q1024 R16/29//95